tititudorancea.com
Station Historical Data
Daily Summary for March 1, 2018 Units:  Metric    English   Both
« Previous Day
Next Day »
Daily Weekly Monthly Yearly Custom
  High: Low: Average:
Temperature: -17.8 °C 12.6 °C 16.4 °C
Dew Point: -17.8 °C 10.9 °C 11.8 °C
Humidity: Humidity % 47 % 77 %
Wind Speed: 0 km/h 3.4 km/h 11.9 km/h
Wind Gust: 0 km/h - -
Wind:- - SW
Pressure: 0 hPa 1013.4 hPa -
Precipitation: 0.51 mm    
Historical Graphs
 
 
Ararat weather Find more about Weather in Ararat, AU


 



 


Tabular Data for March 1, 2018
Time Temperature Dew Point Pressure Wind Wind Speed Wind Gust Humidity Rainfall Rate (Hourly)
-17.8 °C -17.8 °C 0 hPa Calm     Humidity % 0 mm
00:01 14.4 °C 12.5 °C 1013.4 hPa SSW 17.7 km/h 22.2 km/h 88 % 0 mm
00:10 14.4 °C 12.4 °C 1013.4 hPa SSW 25.9 km/h 25.9 km/h 88 % 0 mm
00:15 14.4 °C 12.7 °C 1013.4 hPa North 12.7 km/h 20.4 km/h 89 % 0 mm
00:20 14.4 °C 12.7 °C 1013.4 hPa WSW 11.7 km/h 18.5 km/h 89 % 0 mm
00:25 14.4 °C 12.7 °C 1013.4 hPa North 11.4 km/h 24.1 km/h 89 % 0 mm
00:30 14.4 °C 12.7 °C 1013.4 hPa North 11.7 km/h 17.7 km/h 89 % 0 mm
00:35 14.4 °C 12.7 °C 1013.4 hPa SW 11.6 km/h 18.5 km/h 89 % 0 mm
00:40 14.5 °C 12.7 °C 1013.4 hPa North 9 km/h 13 km/h 89 % 0 mm
00:45 14.5 °C 12.7 °C 1013.4 hPa SSW 13.4 km/h 18.5 km/h 89 % 0 mm
00:50 14.5 °C 12.7 °C 1013.4 hPa SW 17.4 km/h 24.1 km/h 89 % 0 mm
00:55 14.4 °C 12.7 °C 1013.4 hPa SW 12.2 km/h 13 km/h 89 % 0 mm
01:00 14.5 °C 12.7 °C 1013.4 hPa North 13.2 km/h 19.3 km/h 89 % 0 mm
01:05 14.5 °C 12.9 °C 1013.4 hPa SW 15.4 km/h 29.6 km/h 90 % 0 mm
01:10 14.5 °C 12.9 °C 1013.8 hPa SW 18.2 km/h 20.9 km/h 90 % 0 mm
01:15 14.6 °C 12.9 °C 1013.8 hPa North 19 km/h 24.1 km/h 90 % 0 mm
01:20 14.6 °C 12.8 °C 1013.8 hPa North 11.3 km/h 16.7 km/h 89 % 0 mm
01:25 14.6 °C 12.8 °C 1013.8 hPa SW 9.8 km/h 19.3 km/h 89 % 0 mm
01:30 14.6 °C 13 °C 1013.8 hPa North 11.4 km/h 14.5 km/h 90 % 0 mm
01:35 14.6 °C 12.8 °C 1013.8 hPa North 17.5 km/h 22.2 km/h 89 % 0 mm
01:40 14.6 °C 12.8 °C 1013.8 hPa North 16.7 km/h 16.7 km/h 89 % 0 mm
01:45 14.6 °C 12.8 °C 1013.8 hPa SSW 10.9 km/h 11.3 km/h 89 % 0 mm
01:51 14.6 °C 12.8 °C 1013.8 hPa South 10.3 km/h 17.7 km/h 89 % 0 mm
01:56 14.7 °C 13.1 °C 1013.8 hPa SW 7.7 km/h 13 km/h 90 % 0 mm
02:01 14.6 °C 12.9 °C 1013.8 hPa North 11.3 km/h 20.9 km/h 90 % 0 mm
02:06 14.4 °C 13 °C 1013.8 hPa North 10 km/h 16.7 km/h 91 % 0 mm
02:11 14.4 °C 12.9 °C 1013.8 hPa North 13.5 km/h 20.4 km/h 91 % 0 mm
02:16 14.3 °C 13.1 °C 1013.8 hPa North 17.2 km/h 20.9 km/h 92 % 0.25 mm
02:21 14.3 °C 13 °C 1013.8 hPa North 15.8 km/h 20.4 km/h 92 % 0.25 mm
02:26 14.2 °C 13.1 °C 1013.8 hPa SSW 21.6 km/h 24.1 km/h 93 % 0.25 mm
02:31 14.1 °C 12.8 °C 1013.8 hPa North 13 km/h 25.9 km/h 92 % 0.25 mm
02:36 14.1 °C 12.8 °C 1013.8 hPa SW 15.4 km/h 22.2 km/h 92 % 0.25 mm
02:41 14.1 °C 12.8 °C 1013.8 hPa SSW 17.1 km/h 22.2 km/h 92 % 0.25 mm
02:46 14.1 °C 12.8 °C 1013.8 hPa SSW 21.4 km/h 31.5 km/h 92 % 0.25 mm
02:51 14 °C 12.7 °C 1013.8 hPa SSW 17.9 km/h 30.6 km/h 92 % 0.25 mm
02:56 14 °C 12.7 °C 1013.8 hPa North 15.6 km/h 24.1 km/h 92 % 0.25 mm
03:01 14 °C 12.7 °C 1013.8 hPa SSW 14 km/h 16.7 km/h 92 % 0.25 mm
03:06 14 °C 12.7 °C 1013.8 hPa SSW 20 km/h 31.5 km/h 92 % 0.25 mm
03:11 14.1 °C 12.8 °C 1013.8 hPa SW 14 km/h 20.4 km/h 92 % 0 mm
03:16 14.1 °C 12.8 °C 1013.4 hPa North 20.3 km/h 24.1 km/h 92 % 0 mm
03:21 14.1 °C 12.8 °C 1013.4 hPa South 10.5 km/h 18.5 km/h 92 % 0 mm
03:26 14.1 °C 12.9 °C 1013.4 hPa South 10.8 km/h 22.2 km/h 93 % 0 mm
03:31 14.1 °C 12.9 °C 1013.8 hPa North 13.7 km/h 18.5 km/h 93 % 0 mm
03:36 14.1 °C 12.9 °C 1013.8 hPa SSW 16.6 km/h 22.2 km/h 93 % 0 mm
03:41 14.1 °C 12.9 °C 1013.8 hPa SSW 11.3 km/h 18.5 km/h 93 % 0 mm
03:46 14.1 °C 13 °C 1013.8 hPa South 9.7 km/h 14.8 km/h 93 % 0 mm
03:51 14.1 °C 12.9 °C 1013.8 hPa SSW 15.1 km/h 20.4 km/h 93 % 0 mm
03:56 13.9 °C 12.8 °C 1013.8 hPa SSW 21.1 km/h 27.8 km/h 93 % 0 mm
04:01 13.8 °C 12.7 °C 1013.8 hPa SSW 18.5 km/h 24.1 km/h 93 % 0 mm
04:06 13.8 °C 12.7 °C 1013.8 hPa North 16.7 km/h 25.9 km/h 93 % 0 mm
04:11 13.8 °C 12.7 °C 1013.8 hPa North 19.5 km/h 24.1 km/h 93 % 0 mm
04:16 13.8 °C 12.7 °C 1013.8 hPa SSW 16.9 km/h 22.2 km/h 93 % 0 mm
04:21 13.7 °C 12.6 °C 1013.8 hPa SSW 20.4 km/h 31.5 km/h 93 % 0 mm
04:26 13.7 °C 12.6 °C 1013.8 hPa North 12.7 km/h 18.5 km/h 93 % 0 mm
04:31 13.7 °C 12.6 °C 1013.8 hPa South 17.9 km/h 24.1 km/h 93 % 0 mm
04:36 13.6 °C 12.5 °C 1013.8 hPa North 13.8 km/h 18.5 km/h 93 % 0 mm
04:41 13.5 °C 12.4 °C 1013.8 hPa SSW 14.8 km/h 27.8 km/h 93 % 0 mm
04:46 13.4 °C 12.3 °C 1013.8 hPa SSW 18 km/h 24.1 km/h 93 % 0 mm
04:51 13.4 °C 12.3 °C 1013.8 hPa SSW 22.4 km/h 29.6 km/h 93 % 0 mm
04:56 13.4 °C 12.3 °C 1013.8 hPa South 13.5 km/h 20.4 km/h 93 % 0 mm
05:01 13.4 °C 12.3 °C 1013.8 hPa South 16.7 km/h 31.5 km/h 93 % 0 mm
05:06 13.4 °C 12.3 °C 1014.1 hPa SSW 13.4 km/h 22.2 km/h 93 % 0 mm
05:11 13.4 °C 12.3 °C 1014.1 hPa SSW 13.4 km/h 22.5 km/h 93 % 0 mm
05:16 13.4 °C 12.3 °C 1014.1 hPa SSW 8.4 km/h 16.7 km/h 93 % 0 mm
05:21 13.4 °C 12.3 °C 1014.1 hPa SSW 10.5 km/h 16.7 km/h 93 % 0 mm
05:26 13.4 °C 12.3 °C 1014.1 hPa SSW 9.8 km/h 13 km/h 93 % 0 mm
05:31 13.4 °C 12.3 °C 1014.1 hPa SSW 6.1 km/h 11.1 km/h 93 % 0 mm
05:36 13.4 °C 12.3 °C 1014.1 hPa SSW 12.4 km/h 18.5 km/h 93 % 0 mm
05:41 13.4 °C 12.3 °C 1014.1 hPa SSW 10.6 km/h 18.5 km/h 93 % 0 mm
05:46 13.4 °C 12.3 °C 1014.1 hPa SSW 10.1 km/h 18.5 km/h 93 % 0 mm
05:51 13.4 °C 12.3 °C 1014.1 hPa SSW 10.8 km/h 14.8 km/h 93 % 0 mm
05:56 13.4 °C 12.3 °C 1014.1 hPa South 9.7 km/h 13 km/h 93 % 0 mm
06:01 13.4 °C 12.3 °C 1014.1 hPa South 8.2 km/h 13 km/h 93 % 0 mm
06:06 13.4 °C 12.4 °C 1014.1 hPa South 10.6 km/h 16.7 km/h 94 % 0.25 mm
06:11 13.3 °C 12.4 °C 1014.1 hPa SSW 11.7 km/h 18.5 km/h 94 % 0.25 mm
06:16 13.3 °C 12.4 °C 1014.4 hPa North 10.1 km/h 14.8 km/h 94 % 0.51 mm
06:21 13.3 °C 12.3 °C 1014.4 hPa North 16.6 km/h 20.4 km/h 94 % 0.51 mm
06:26 13.2 °C 12.3 °C 1014.4 hPa SSW 15.4 km/h 22.2 km/h 94 % 0.51 mm
06:31 13.1 °C 12.2 °C 1014.4 hPa SSW 15.3 km/h 22.2 km/h 94 % 0.51 mm
06:36 13 °C 12.1 °C 1014.4 hPa North 18.3 km/h 25.9 km/h 94 % 0.51 mm
06:41 12.9 °C 12 °C 1014.4 hPa North 13.7 km/h 18.5 km/h 94 % 0.51 mm
06:46 12.9 °C 11.9 °C 1014.8 hPa SSW 17.4 km/h 22.5 km/h 94 % 0.51 mm
06:51 12.8 °C 11.9 °C 1014.8 hPa South 11.1 km/h 18.5 km/h 94 % 0.51 mm
06:56 12.8 °C 11.9 °C 1014.8 hPa North 11.7 km/h 20.9 km/h 94 % 0.51 mm
07:01 12.8 °C 11.9 °C 1014.8 hPa South 7.7 km/h 11.3 km/h 94 % 0.51 mm
07:06 12.8 °C 11.9 °C 1014.8 hPa SSW 15.6 km/h 24.1 km/h 94 % 0.25 mm
07:11 12.9 °C 11.9 °C 1014.8 hPa South 10.9 km/h 18.5 km/h 94 % 0.25 mm
07:16 12.9 °C 11.9 °C 1015.1 hPa South 11.6 km/h 18.5 km/h 94 % 0 mm
07:21 12.9 °C 11.9 °C 1015.1 hPa North 14.2 km/h 20.4 km/h 94 % 0 mm
07:26 12.9 °C 11.9 °C 1015.1 hPa North 9.5 km/h 16.7 km/h 94 % 0 mm
07:31 12.9 °C 11.9 °C 1015.1 hPa SSW 12.7 km/h 22.2 km/h 94 % 0 mm
07:36 12.8 °C 11.9 °C 1015.5 hPa SSW 12.6 km/h 19.3 km/h 94 % 0 mm
07:41 12.7 °C 11.8 °C 1015.5 hPa SSW 16.3 km/h 24.1 km/h 94 % 0 mm
07:46 12.7 °C 11.8 °C 1015.5 hPa SSW 13 km/h 18.5 km/h 94 % 0 mm
07:51 12.7 °C 11.8 °C 1015.5 hPa SSW 16.3 km/h 20.4 km/h 94 % 0 mm
07:56 12.7 °C 11.8 °C 1015.5 hPa SSW 13.7 km/h 16.7 km/h 94 % 0 mm
08:01 12.8 °C 11.7 °C 1015.8 hPa SSW 12.4 km/h 17.7 km/h 93 % 0 mm
08:06 12.6 °C 11.5 °C 1015.8 hPa South 11.7 km/h 22.2 km/h 93 % 0 mm
08:12 12.6 °C 11.3 °C 1015.8 hPa North 9.2 km/h 13 km/h 92 % 0 mm
08:17 12.6 °C 11.3 °C 1015.8 hPa SSW 11.4 km/h 18.5 km/h 92 % 0 mm
08:22 12.7 °C 11.4 °C 1015.8 hPa SSW 12.6 km/h 18.5 km/h 92 % 0 mm
08:27 12.7 °C 11.3 °C 1015.8 hPa North 10.6 km/h 16.7 km/h 91 % 0 mm
08:32 12.8 °C 11.3 °C 1015.8 hPa South 9.8 km/h 18.5 km/h 91 % 0 mm
08:37 12.8 °C 11.2 °C 1015.8 hPa SSW 11.3 km/h 17.7 km/h 90 % 0 mm
08:42 12.8 °C 11.2 °C 1016.1 hPa North 14.5 km/h 20.4 km/h 90 % 0 mm
08:47 12.9 °C 11.3 °C 1016.1 hPa North 7.7 km/h 20.9 km/h 90 % 0 mm
08:52 12.9 °C 11.2 °C 1016.1 hPa SSW 9 km/h 13 km/h 89 % 0 mm
08:57 12.9 °C 11.1 °C 1016.1 hPa North 10.9 km/h 18.5 km/h 89 % 0 mm
09:02 12.9 °C 10.9 °C 1016.1 hPa SSW 16.1 km/h 27.8 km/h 88 % 0 mm
09:07 12.9 °C 10.9 °C 1016.1 hPa South 19.3 km/h 25.9 km/h 88 % 0 mm
09:12 12.9 °C 11 °C 1016.1 hPa South 18.8 km/h 27.8 km/h 88 % 0 mm
09:17 13 °C 11.1 °C 1016.1 hPa South 11.9 km/h 20.4 km/h 88 % 0 mm
09:22 13 °C 11.1 °C 1016.1 hPa North 12.9 km/h 20.4 km/h 88 % 0 mm
09:27 13.1 °C 11.2 °C 1016.1 hPa SSW 6.8 km/h 13 km/h 88 % 0 mm
09:32 13.1 °C 11.3 °C 1016.5 hPa South 10.1 km/h 16.7 km/h 89 % 0 mm
09:37 13.1 °C 11.3 °C 1016.5 hPa North 13 km/h 24.1 km/h 89 % 0 mm
09:42 13.1 °C 11.3 °C 1016.5 hPa South 10 km/h 16.7 km/h 89 % 0 mm
09:47 13.1 °C 11.4 °C 1016.5 hPa SSE 10 km/h 16.1 km/h 90 % 0 mm
09:52 13.2 °C 11.6 °C 1016.5 hPa South 9 km/h 16.7 km/h 90 % 0 mm
09:57 13.2 °C 11.6 °C 1016.8 hPa South 16.4 km/h 29.6 km/h 90 % 0 mm
10:02 13.2 °C 11.6 °C 1016.8 hPa North 6.3 km/h 18.5 km/h 90 % 0 mm
10:07 13.3 °C 11.8 °C 1016.8 hPa SSE 12.2 km/h 18.5 km/h 91 % 0 mm
10:12 13.4 °C 11.8 °C 1016.8 hPa North 8.9 km/h 13 km/h 90 % 0 mm
10:17 13.5 °C 11.9 °C 1017.2 hPa South 12.4 km/h 16.7 km/h 90 % 0 mm
10:22 13.4 °C 11.8 °C 1017.2 hPa North 11.7 km/h 18.5 km/h 90 % 0 mm
10:27 13.4 °C 12 °C 1017.2 hPa North 8 km/h 14.8 km/h 91 % 0 mm
10:32 13.4 °C 12 °C 1017.2 hPa North 14 km/h 18.5 km/h 91 % 0 mm
10:37 13.6 °C 12.2 °C 1017.2 hPa South 12.1 km/h 16.7 km/h 91 % 0 mm
10:42 13.8 °C 12.2 °C 1017.2 hPa South 11.1 km/h 18.5 km/h 90 % 0 mm
10:47 14 °C 12.2 °C 1017.2 hPa South 10.3 km/h 18.5 km/h 89 % 0 mm
10:52 14.2 °C 12.4 °C 1017.5 hPa SSE 6.3 km/h 11.1 km/h 89 % 0 mm
10:57 14.4 °C 12.4 °C 1017.5 hPa South 12.2 km/h 16.7 km/h 88 % 0 mm
11:02 14.2 °C 12.3 °C 1017.5 hPa South 11.3 km/h 18.5 km/h 88 % 0 mm
11:07 14.1 °C 12.5 °C 1017.5 hPa SSW 7.2 km/h 11.1 km/h 90 % 0 mm
11:12 14 °C 12.6 °C 1017.5 hPa SSW 6.6 km/h 11.1 km/h 91 % 0 mm
11:17 14 °C 12.6 °C 1017.5 hPa North 11.7 km/h 18.5 km/h 91 % 0 mm
11:22 14.2 °C 12.9 °C 1017.5 hPa South 7.6 km/h 12.9 km/h 92 % 0 mm
11:27 14.3 °C 13.1 °C 1017.5 hPa South 8.5 km/h 14.8 km/h 92 % 0 mm
11:32 14.3 °C 12.9 °C 1017.5 hPa South 8.2 km/h 13 km/h 91 % 0 mm
11:37 14.7 °C 13.3 °C 1017.5 hPa South 10.8 km/h 11.1 km/h 91 % 0 mm
11:42 14.9 °C 13.2 °C 1017.5 hPa South 10.8 km/h 18.5 km/h 89 % 0 mm
11:47 15.2 °C 13.1 °C 1017.5 hPa South 12.7 km/h 18.5 km/h 87 % 0 mm
11:52 15.3 °C 12.8 °C 1017.5 hPa SSW 9.8 km/h 14.8 km/h 85 % 0 mm
11:57 15.3 °C 12.8 °C 1017.5 hPa SSW 6.8 km/h 16.7 km/h 85 % 0 mm
12:02 15.4 °C 12.7 °C 1017.2 hPa SSE 8.9 km/h 13 km/h 84 % 0 mm
12:07 15.6 °C 12.6 °C 1017.5 hPa South 15.4 km/h 25.9 km/h 82 % 0 mm
12:12 15.7 °C 12.7 °C 1017.2 hPa SSE 10.9 km/h 18.5 km/h 82 % 0 mm
12:17 16.1 °C 13.1 °C 1017.5 hPa SSE 10.8 km/h 14.8 km/h 82 % 0 mm
12:22 16.4 °C 12.9 °C 1017.2 hPa SSE 11.4 km/h 16.7 km/h 80 % 0 mm
12:27 16.4 °C 12.8 °C 1017.2 hPa South 10.8 km/h 14.8 km/h 79 % 0 mm
12:32 16.9 °C 12.9 °C 1017.2 hPa SSE 13.7 km/h 16.7 km/h 77 % 0 mm
12:37 17.4 °C 13.1 °C 1017.2 hPa South 11.4 km/h 16.7 km/h 76 % 0 mm
12:42 17.4 °C 12.5 °C 1017.2 hPa SSE 14.6 km/h 22.2 km/h 73 % 0 mm
12:47 17.2 °C 12.3 °C 1017.2 hPa SSE 9.5 km/h 18.5 km/h 73 % 0 mm
12:52 17.2 °C 12.6 °C 1017.2 hPa SW 11.1 km/h 16.7 km/h 74 % 0 mm
12:57 17.2 °C 12.5 °C 1017.2 hPa SSW 12.7 km/h 14.8 km/h 74 % 0 mm
13:02 17.3 °C 12.4 °C 1017.2 hPa SSW 8.9 km/h 16.7 km/h 73 % 0 mm
13:07 17.6 °C 12.4 °C 1017.2 hPa South 12.4 km/h 16.7 km/h 72 % 0 mm
13:12 17.7 °C 12.6 °C 1016.8 hPa South 11.7 km/h 18.5 km/h 72 % 0 mm
13:17 18.4 °C 12.4 °C 1016.8 hPa South 10.3 km/h 22.2 km/h 68 % 0 mm
13:22 19.1 °C 12.6 °C 1016.8 hPa South 13 km/h 25.9 km/h 66 % 0 mm
13:27 19 °C 12.3 °C 1016.8 hPa SSW 10 km/h 22.2 km/h 65 % 0 mm
13:32 19 °C 12.1 °C 1016.8 hPa South 12.9 km/h 20.4 km/h 64 % 0 mm
13:42 19.3 °C 12.1 °C 1016.5 hPa South 19.3 km/h 27.8 km/h 63 % 0 mm
13:47 19.4 °C 12.2 °C 1016.5 hPa SSW 15.6 km/h 20.9 km/h 63 % 0 mm
13:52 19.4 °C 11.9 °C 1016.5 hPa SSW 8 km/h 14.8 km/h 62 % 0 mm
13:57 19.5 °C 11.8 °C 1016.5 hPa South 11.6 km/h 18.5 km/h 61 % 0 mm
14:02 19.4 °C 11.7 °C 1016.1 hPa SSW 18.7 km/h 27.8 km/h 61 % 0 mm
14:07 19.7 °C 12 °C 1016.1 hPa SSE 12.7 km/h 20.4 km/h 61 % 0 mm
14:12 20.1 °C 11.8 °C 1016.1 hPa South 16.7 km/h 18.5 km/h 59 % 0 mm
14:17 20.4 °C 12.1 °C 1015.8 hPa SSE 10 km/h 24.1 km/h 59 % 0 mm
14:22 20.8 °C 11.9 °C 1015.8 hPa SSE 15.3 km/h 24.1 km/h 57 % 0 mm
14:27 20.8 °C 11.7 °C 1015.8 hPa South 10.3 km/h 18.5 km/h 56 % 0 mm
14:32 21 °C 11.9 °C 1015.8 hPa SE 16.1 km/h 18.5 km/h 56 % 0 mm
14:38 20.8 °C 11.7 °C 1015.8 hPa SSW 17.2 km/h 22.5 km/h 56 % 0 mm
14:43 20.8 °C 11.7 °C 1015.8 hPa SE 9.8 km/h 18.5 km/h 56 % 0 mm
14:48 21.3 °C 11.6 °C 1015.5 hPa SSE 15 km/h 19.3 km/h 54 % 0 mm
14:53 21.2 °C 11.8 °C 1015.5 hPa SSW 7.2 km/h 18.5 km/h 55 % 0 mm
14:58 21.4 °C 11.7 °C 1015.5 hPa South 11.1 km/h 31.5 km/h 54 % 0 mm
15:03 21.7 °C 11.9 °C 1015.5 hPa South 12.1 km/h 22.5 km/h 54 % 0 mm
15:08 21.6 °C 12.1 °C 1015.5 hPa SSE 16.1 km/h 19.3 km/h 55 % 0 mm
15:13 21.8 °C 11.6 °C 1015.1 hPa SSE 13.2 km/h 18.5 km/h 52 % 0 mm
15:18 21.7 °C 11.7 °C 1015.1 hPa South 19.2 km/h 20.4 km/h 53 % 0 mm
15:23 21.4 °C 11.7 °C 1015.1 hPa South 16.7 km/h 18.5 km/h 54 % 0 mm
15:28 21.7 °C 12.3 °C 1015.1 hPa SSE 15.1 km/h 22.2 km/h 55 % 0 mm
15:33 22 °C 12 °C 1014.8 hPa SSW 11.3 km/h 18.5 km/h 53 % 0 mm
15:38 21.8 °C 11.8 °C 1014.8 hPa South 10.8 km/h 18.5 km/h 53 % 0 mm
15:43 21.7 °C 11.7 °C 1014.8 hPa SSE 12.4 km/h 18.5 km/h 53 % 0 mm
15:48 21.7 °C 11.7 °C 1014.8 hPa North 12.2 km/h 18.5 km/h 53 % 0 mm
15:53 21.7 °C 12 °C 1014.4 hPa SSE 14.6 km/h 22.2 km/h 54 % 0 mm
15:58 21.9 °C 11.6 °C 1014.4 hPa South 16.4 km/h 24.1 km/h 52 % 0 mm
16:03 22.1 °C 12.1 °C 1014.4 hPa South 15.4 km/h 27.8 km/h 53 % 0 mm
16:08 22.3 °C 11.7 °C 1014.4 hPa SSE 22.2 km/h 31.5 km/h 51 % 0 mm
16:13 22.5 °C 11.6 °C 1014.4 hPa SSE 14.8 km/h 25.9 km/h 50 % 0 mm
16:18 22.5 °C 11.6 °C 1014.4 hPa South 15.9 km/h 24.1 km/h 50 % 0 mm
16:23 22.5 °C 11.6 °C 1014.4 hPa SSE 12.2 km/h 16.7 km/h 50 % 0 mm
16:28 22.6 °C 11.6 °C 1014.1 hPa SSE 12.4 km/h 22.2 km/h 50 % 0 mm
16:33 22.6 °C 11.6 °C 1014.1 hPa SSW 15.1 km/h 22.2 km/h 50 % 0 mm
16:38 22.8 °C 11.9 °C 1014.4 hPa SE 11.1 km/h 18.5 km/h 50 % 0 mm
16:43 22.8 °C 11.8 °C 1014.1 hPa South 8.4 km/h 16.7 km/h 50 % 0 mm
16:48 22.9 °C 11.7 °C 1014.1 hPa SSE 9.3 km/h 16.7 km/h 49 % 0 mm
16:53 22.9 °C 11.7 °C 1014.1 hPa SSE 7.1 km/h 13 km/h 49 % 0 mm
16:58 22.9 °C 11.3 °C 1014.1 hPa SE 19.3 km/h 27.8 km/h 48 % 0 mm
17:03 22.9 °C 11.3 °C 1014.1 hPa SSE 12.7 km/h 18.5 km/h 48 % 0 mm
17:08 23.1 °C 11.1 °C 1014.1 hPa SSE 15.9 km/h 22.2 km/h 47 % 0 mm
17:13 23 °C 11.4 °C 1014.1 hPa SE 18.8 km/h 24.1 km/h 48 % 0 mm
17:18 22.9 °C 11.3 °C 1014.1 hPa South 19.2 km/h 27.8 km/h 48 % 0 mm
17:23 22.8 °C 11.2 °C 1013.8 hPa South 13.7 km/h 22.2 km/h 48 % 0 mm
17:28 22.7 °C 11.4 °C 1013.8 hPa SSW 16.1 km/h 22.2 km/h 49 % 0 mm
17:33 22.8 °C 11.2 °C 1013.8 hPa South 20.4 km/h 33.3 km/h 48 % 0 mm
17:38 22.7 °C 11.1 °C 1013.8 hPa South 9.8 km/h 18.5 km/h 48 % 0 mm
17:43 22.8 °C 11.2 °C 1013.8 hPa SSE 16.4 km/h 22.5 km/h 48 % 0 mm
17:48 22.8 °C 11.2 °C 1013.8 hPa SSE 11.9 km/h 18.5 km/h 48 % 0 mm
17:53 22.6 °C 11.3 °C 1013.8 hPa South 12.1 km/h 27.8 km/h 49 % 0 mm
17:58 22.7 °C 11.4 °C 1014.1 hPa SSE 11.4 km/h 20.4 km/h 49 % 0 mm
18:03 22.6 °C 11.3 °C 1014.1 hPa SSE 12.1 km/h 22.2 km/h 49 % 0 mm
18:08 22.5 °C 10.9 °C 1014.1 hPa SSW 16.4 km/h 22.2 km/h 48 % 0 mm
18:13 22.5 °C 11.6 °C 1014.1 hPa SE 9.2 km/h 18.5 km/h 50 % 0 mm
18:18 22.4 °C 11.2 °C 1014.1 hPa South 13.5 km/h 18.5 km/h 49 % 0 mm
18:23 22.4 °C 11.2 °C 1014.1 hPa South 10.5 km/h 14.8 km/h 49 % 0 mm
18:29 22.3 °C 11.1 °C 1014.1 hPa South 11.1 km/h 31.5 km/h 49 % 0 mm
18:34 22.3 °C 11.1 °C 1014.1 hPa SSE 12.1 km/h 16.7 km/h 49 % 0 mm
18:39 22.3 °C 11.3 °C 1014.4 hPa South 14 km/h 14.8 km/h 50 % 0 mm
18:44 22.2 °C 11.3 °C 1014.4 hPa South 10.8 km/h 16.7 km/h 50 % 0 mm
18:49 22.2 °C 11.3 °C 1014.4 hPa SSE 12.1 km/h 19.3 km/h 50 % 0 mm
18:54 22.2 °C 11.3 °C 1014.4 hPa SSE 5.8 km/h 11.1 km/h 50 % 0 mm
18:59 22.2 °C 11.2 °C 1014.4 hPa SSE 10.3 km/h 14.8 km/h 50 % 0 mm
19:04 22.1 °C 11.5 °C 1014.8 hPa SSE 10.5 km/h 18.5 km/h 51 % 0 mm
19:09 21.9 °C 11.3 °C 1014.8 hPa SSE 10.9 km/h 16.7 km/h 51 % 0 mm
19:14 21.8 °C 11.2 °C 1014.8 hPa South 7.9 km/h 14.8 km/h 51 % 0 mm
19:18 21.7 °C 11.4 °C 1014.8 hPa South 5.5 km/h 14.8 km/h 52 % 0 mm
19:23 21.6 °C 11.3 °C 1014.8 hPa SSE 12.1 km/h 18.5 km/h 52 % 0 mm
19:28 21.3 °C 11.3 °C 1014.8 hPa SSE 14.3 km/h 18.5 km/h 53 % 0 mm
19:31 21.1 °C 11.2 °C 1014.8 hPa SSE 5.8 km/h 13 km/h 53 % 0 mm
19:36 20.8 °C 11.2 °C 1014.8 hPa SSE 9.2 km/h 18.5 km/h 54 % 0 mm
19:41 20.7 °C 11 °C 1014.8 hPa SSE 9.7 km/h 14.8 km/h 54 % 0 mm
19:46 20.5 °C 11.2 °C 1014.8 hPa SSE 9.3 km/h 18.5 km/h 55 % 0 mm
19:48 20.4 °C 11.3 °C 1014.8 hPa South 9.7 km/h 25.9 km/h 56 % 0 mm
19:53 20.2 °C 11.2 °C 1015.1 hPa South 9.8 km/h 14.8 km/h 56 % 0 mm
19:58 20 °C 11.2 °C 1015.1 hPa South 9.3 km/h 13 km/h 57 % 0 mm
20:03 19.7 °C 11.2 °C 1015.5 hPa South 6.8 km/h 14.8 km/h 58 % 0 mm
20:08 19.6 °C 11.3 °C 1015.5 hPa South 4.7 km/h 11.1 km/h 59 % 0 mm
20:13 19.3 °C 11.1 °C 1015.5 hPa South 7.1 km/h 9.3 km/h 59 % 0 mm
20:17 19.2 °C 11.3 °C 1015.1 hPa South 9 km/h 16.7 km/h 60 % 0 mm
20:20 19.1 °C 11.2 °C 1015.1 hPa South 6 km/h 9.3 km/h 60 % 0 mm
20:25 18.9 °C 11.3 °C 1015.1 hPa South 6.6 km/h 14.8 km/h 61 % 0 mm
20:30 18.8 °C 11.3 °C 1015.1 hPa South 10.6 km/h 16.7 km/h 62 % 0 mm
20:35 18.6 °C 11.4 °C 1015.1 hPa South 9.8 km/h 13 km/h 63 % 0 mm
20:39 18.4 °C 11.5 °C 1015.1 hPa South 8.5 km/h 11.1 km/h 64 % 0 mm
20:40 18.4 °C 11.5 °C 1015.1 hPa SSW 8.4 km/h 11.1 km/h 64 % 0 mm
20:45 18.3 °C 11.3 °C 1015.1 hPa South 5 km/h 13 km/h 64 % 0 mm
20:50 18.1 °C 11.4 °C 1015.1 hPa South 8 km/h 11.1 km/h 65 % 0 mm
20:55 17.9 °C 11.4 °C 1015.1 hPa South 10.1 km/h 14.8 km/h 66 % 0 mm
21:00 17.7 °C 11.5 °C 1015.1 hPa South 6.6 km/h 14.8 km/h 67 % 0 mm
21:05 17.6 °C 11.3 °C 1015.5 hPa South 7.1 km/h 9.7 km/h 67 % 0 mm
21:10 17.4 °C 11.5 °C 1015.5 hPa South 5.1 km/h 9.7 km/h 68 % 0 mm
21:15 17.3 °C 11.6 °C 1015.5 hPa North 5.3 km/h 16.1 km/h 69 % 0 mm
21:20 17.1 °C 11.4 °C 1015.5 hPa South 10.1 km/h 18.5 km/h 69 % 0 mm
21:25 16.9 °C 11.4 °C 1015.5 hPa SSE 10.1 km/h 13 km/h 70 % 0 mm
21:30 16.8 °C 11.5 °C 1015.5 hPa SSE 9.5 km/h 16.7 km/h 71 % 0 mm
21:35 16.6 °C 11.3 °C 1015.5 hPa South 7.4 km/h 17.7 km/h 71 % 0 mm
21:40 16.4 °C 11.4 °C 1015.5 hPa SSE 6.3 km/h 11.1 km/h 72 % 0 mm
21:45 16.3 °C 11.4 °C 1015.5 hPa North 5.8 km/h 9.3 km/h 73 % 0 mm
21:50 16.1 °C 11.3 °C 1015.5 hPa SSE 7.4 km/h 14.8 km/h 73 % 0 mm
21:55 15.9 °C 11.3 °C 1015.8 hPa South 6.9 km/h 11.1 km/h 74 % 0 mm
22:00 15.8 °C 11.4 °C 1015.8 hPa South 7.9 km/h 13 km/h 75 % 0 mm
22:05 15.7 °C 11.3 °C 1015.8 hPa South 7.6 km/h 9.3 km/h 75 % 0 mm
22:10 15.6 °C 11.4 °C 1015.8 hPa South 7.9 km/h 13 km/h 76 % 0 mm
22:15 15.4 °C 11.4 °C 1015.5 hPa North 3.9 km/h 7.4 km/h 77 % 0 mm
22:20 15.3 °C 11.3 °C 1015.8 hPa North 3.4 km/h 7.4 km/h 77 % 0 mm
22:25 15.2 °C 11.3 °C 1015.8 hPa North 6.3 km/h 7.4 km/h 78 % 0 mm
22:30 15 °C 11.4 °C 1015.8 hPa South 7.4 km/h 11.1 km/h 79 % 0 mm
22:35 14.9 °C 11.3 °C 1015.8 hPa North 9 km/h 12.9 km/h 79 % 0 mm
22:40 14.8 °C 11.3 °C 1015.8 hPa North 5.8 km/h 11.1 km/h 80 % 0 mm
22:45 14.7 °C 11.3 °C 1015.8 hPa South 9 km/h 14.8 km/h 80 % 0 mm
22:51 14.6 °C 11.4 °C 1015.5 hPa North 7.6 km/h 13 km/h 81 % 0 mm
22:56 14.5 °C 11.3 °C 1015.5 hPa South 7.4 km/h 11.1 km/h 81 % 0 mm
23:01 14.4 °C 11.2 °C 1015.5 hPa North 6.3 km/h 6.4 km/h 81 % 0 mm
23:06 14.3 °C 11.2 °C 1015.8 hPa North 7.2 km/h 9.3 km/h 82 % 0 mm
23:11 14.2 °C 11.1 °C 1015.8 hPa South 6.8 km/h 9.7 km/h 82 % 0 mm
23:16 14.1 °C 11.1 °C 1015.5 hPa South 7.7 km/h 8 km/h 82 % 0 mm
23:21 14 °C 11.2 °C 1015.5 hPa South 7.7 km/h 14.8 km/h 83 % 0 mm
23:26 13.9 °C 11.1 °C 1015.5 hPa North 7.1 km/h 13 km/h 83 % 0 mm
23:31 13.8 °C 11.2 °C 1015.1 hPa South 5.6 km/h 9.3 km/h 84 % 0 mm
23:36 13.8 °C 11.1 °C 1015.5 hPa North 8.9 km/h 14.8 km/h 84 % 0 mm
23:41 13.7 °C 11.1 °C 1015.1 hPa South 8.7 km/h 11.3 km/h 84 % 0 mm
23:46 13.6 °C 10.9 °C 1015.1 hPa North 10.9 km/h 16.7 km/h 84 % 0 mm
23:51 13.6 °C 11.1 °C 1015.1 hPa North 6.9 km/h 11.1 km/h 85 % 0 mm
23:56 13.5 °C 11 °C 1015.1 hPa North 10.1 km/h 13 km/h 85 % 0 mm
Ararat Weather
Compliments of Weather Underground - 2.25 mb
Click here to send mail.


ABOUT

Live weather data from Ararat, Victoria, Australia, 3377
Data uploaded from Cumulus every 5 minutes to Weather Underground.
This site then downloads the raw data for formatting and display.
Metric and imperial data can be displayed. Graphs and historical data available.
Includes Sun and Moon times and rain image live from BOM.

Check out Ararat Weather on Facebook, Twitter and Google +

Help support ongoing costs by checking out the ads





Follow @AraratWeather